Time;durP1;ratioP1;P1;durP2;ratioP2;P2;SDS_P1;SDS_P2;PMS_P1;PMS_P2;Temp;Humidity;BMP_temperature;BMP_pressure;BME280_temperature;BME280_humidity;BME280_pressure;Samples;Min_cycle;Max_cycle;Signal;HPM_P1;HPM_P2
2022/05/01 00:00:27;;;;;;;12.75;8.07;;;;;;;;;;5006046;28;20137;-78
2022/05/01 00:02:54;;;;;;;16.85;9.02;;;;;;;;;;5004413;28;20141;-78
2022/05/01 00:05:20;;;;;;;15.18;9.05;;;;;;;;;;5003397;28;20061;-78
2022/05/01 00:07:47;;;;;;;19.52;8.75;;;;;;;;;;5020975;28;20062;-78
2022/05/01 00:10:13;;;;;;;16.70;9.20;;;;;;;;;;5005686;28;20142;-77
2022/05/01 00:12:39;;;;;;;17.05;8.73;;;;;;;;;;5005357;28;20209;-78
2022/05/01 00:15:06;;;;;;;15.48;9.25;;;;;;;;;;5013530;28;20105;-78
2022/05/01 00:17:32;;;;;;;16.55;9.00;;;;;;;;;;5014849;28;20050;-78
2022/05/01 00:19:59;;;;;;;18.17;9.50;;;;;;;;;;5011556;28;20158;-78
2022/05/01 00:22:26;;;;;;;17.58;9.10;;;;;;;;;;5003816;28;20604;-78
2022/05/01 00:24:52;;;;;;;14.82;9.15;;;;;;;;;;4995071;28;20051;-78
2022/05/01 00:27:18;;;;;;;16.83;9.82;;;;;;;;;;5004291;28;20058;-78
2022/05/01 00:29:45;;;;;;;21.38;10.32;;;;;;;;;;5005174;28;20154;-78
2022/05/01 00:32:12;;;;;;;14.98;9.10;;;;;;;;;;5003519;28;20088;-78
2022/05/01 00:37:23;;;;;;;18.95;9.90;;;;;;;;;;5005521;28;20054;-78
2022/05/01 00:39:50;;;;;;;16.45;9.57;;;;;;;;;;5006082;28;20050;-78
2022/05/01 00:42:17;;;;;;;17.60;9.82;;;;;;;;;;5002293;28;20141;-78
2022/05/01 00:44:43;;;;;;;18.65;10.30;;;;;;;;;;5003597;28;20070;-78
2022/05/01 00:47:09;;;;;;;17.75;10.27;;;;;;;;;;5003445;28;20149;-78
2022/05/01 00:49:36;;;;;;;16.02;9.43;;;;;;;;;;5003921;28;20061;-78
2022/05/01 00:52:08;;;;;;;19.67;9.95;;;;;;;;;;5002371;28;20579;-78
2022/05/01 00:54:36;;;;;;;20.88;10.07;;;;;;;;;;5004171;28;20074;-78
2022/05/01 00:57:04;;;;;;;17.40;10.30;;;;;;;;;;5003724;28;20155;-78
2022/05/01 00:59:30;;;;;;;17.88;10.82;;;;;;;;;;5004779;28;20054;-78
2022/05/01 01:01:57;;;;;;;18.15;10.35;;;;;;;;;;5003487;28;20076;-78
2022/05/01 01:04:24;;;;;;;18.25;10.35;;;;;;;;;;4999791;28;21009;-78
2022/05/01 01:06:50;;;;;;;15.88;9.13;;;;;;;;;;5004362;28;20054;-78
2022/05/01 01:09:17;;;;;;;15.82;9.63;;;;;;;;;;4998609;28;20046;-78
2022/05/01 01:11:44;;;;;;;18.63;10.23;;;;;;;;;;5001548;28;20054;-78
2022/05/01 01:14:10;;;;;;;16.83;10.10;;;;;;;;;;5004496;28;20058;-78
2022/05/01 01:16:37;;;;;;;17.55;10.70;;;;;;;;;;5006475;28;20061;-78
2022/05/01 01:19:05;;;;;;;20.02;10.57;;;;;;;;;;5003022;28;20560;-78
2022/05/01 01:21:31;;;;;;;18.35;10.52;;;;;;;;;;5002448;28;20522;-78
2022/05/01 01:23:58;;;;;;;19.52;10.50;;;;;;;;;;5004512;28;20149;-78
2022/05/01 01:26:24;;;;;;;16.20;9.80;;;;;;;;;;5012037;28;20065;-77
2022/05/01 01:28:53;;;;;;;20.55;10.35;;;;;;;;;;5005182;28;20054;-78
2022/05/01 01:34:05;;;;;;;17.15;9.82;;;;;;;;;;5007121;28;20066;-78
2022/05/01 01:36:35;;;;;;;17.13;10.38;;;;;;;;;;4998730;28;20054;-78
2022/05/01 01:39:02;;;;;;;18.02;9.80;;;;;;;;;;5007660;28;20056;-78
2022/05/01 01:41:29;;;;;;;21.15;10.32;;;;;;;;;;5005975;28;20141;-78
2022/05/01 01:43:56;;;;;;;16.52;9.88;;;;;;;;;;5006898;28;20055;-78
2022/05/01 01:46:23;;;;;;;15.45;9.13;;;;;;;;;;5006813;28;20501;-78
2022/05/01 01:48:50;;;;;;;16.92;10.43;;;;;;;;;;5006614;28;20061;-77
2022/05/01 01:51:17;;;;;;;19.15;10.25;;;;;;;;;;5004960;28;20133;-78
2022/05/01 01:53:44;;;;;;;21.85;10.80;;;;;;;;;;5007651;28;20141;-78
2022/05/01 01:56:11;;;;;;;19.23;9.93;;;;;;;;;;5007536;28;20058;-78
2022/05/01 01:58:40;;;;;;;17.85;10.07;;;;;;;;;;5007504;28;20078;-78
2022/05/01 02:01:19;;;;;;;21.85;10.13;;;;;;;;;;5003059;28;21064;-78
2022/05/01 02:03:46;;;;;;;16.42;9.45;;;;;;;;;;5006781;28;20061;-79
2022/05/01 02:06:16;;;;;;;17.20;9.95;;;;;;;;;;5003890;28;20054;-78
2022/05/01 02:08:47;;;;;;;18.55;9.75;;;;;;;;;;5004858;28;20070;-78
2022/05/01 02:11:17;;;;;;;19.17;9.55;;;;;;;;;;5004976;28;20057;-78
2022/05/01 02:13:46;;;;;;;17.88;9.65;;;;;;;;;;5002623;28;20062;-78
2022/05/01 02:16:17;;;;;;;15.32;9.07;;;;;;;;;;5021357;28;20157;-78
2022/05/01 02:18:47;;;;;;;13.93;8.38;;;;;;;;;;5006336;28;20054;-78
2022/05/01 02:21:35;;;;;;;19.20;9.55;;;;;;;;;;4995365;28;20050;-78
2022/05/01 02:24:07;;;;;;;15.80;8.73;;;;;;;;;;5003449;28;20073;-78
2022/05/01 02:26:36;;;;;;;16.60;9.30;;;;;;;;;;4993747;28;20051;-78
2022/05/01 02:29:11;;;;;;;18.65;9.57;;;;;;;;;;4997366;28;20059;-78
2022/05/01 02:31:41;;;;;;;18.95;10.23;;;;;;;;;;5012527;28;20392;-78
2022/05/01 02:34:13;;;;;;;18.50;9.55;;;;;;;;;;4998737;28;20054;-78
2022/05/01 02:36:42;;;;;;;16.33;9.18;;;;;;;;;;5002644;28;20583;-78
2022/05/01 02:39:16;;;;;;;17.55;8.30;;;;;;;;;;5002964;28;20035;-78
2022/05/01 02:41:46;;;;;;;14.80;8.75;;;;;;;;;;5002536;28;20714;-78
2022/05/01 02:44:17;;;;;;;15.30;9.07;;;;;;;;;;4999299;28;20070;-78
2022/05/01 02:46:46;;;;;;;17.85;8.73;;;;;;;;;;4997630;28;20058;-78
2022/05/01 02:49:16;;;;;;;15.93;8.73;;;;;;;;;;5002077;28;20051;-78
2022/05/01 02:51:45;;;;;;;13.57;7.50;;;;;;;;;;5000491;28;20042;-78
2022/05/01 02:54:15;;;;;;;14.05;7.75;;;;;;;;;;5005299;28;20058;-78
2022/05/01 02:56:45;;;;;;;12.55;6.55;;;;;;;;;;5007816;28;20050;-78
2022/05/01 02:59:17;;;;;;;11.77;7.43;;;;;;;;;;5000526;28;20053;-78
2022/05/01 03:01:45;;;;;;;14.10;7.30;;;;;;;;;;5003749;28;20054;-78
2022/05/01 03:04:14;;;;;;;15.88;8.18;;;;;;;;;;5005235;28;20428;-78
2022/05/01 03:06:46;;;;;;;14.77;7.50;;;;;;;;;;5025309;28;20051;-78
2022/05/01 03:09:15;;;;;;;14.07;7.80;;;;;;;;;;4998756;28;20539;-78
2022/05/01 03:11:45;;;;;;;14.48;7.80;;;;;;;;;;5014580;28;20800;-78
2022/05/01 03:14:14;;;;;;;14.48;7.90;;;;;;;;;;5003083;28;20682;-78
2022/05/01 03:16:44;;;;;;;13.60;7.82;;;;;;;;;;5002718;28;22131;-78
2022/05/01 03:22:13;;;;;;;13.57;7.10;;;;;;;;;;5004747;28;20520;-78
2022/05/01 03:24:42;;;;;;;12.95;7.32;;;;;;;;;;5006241;28;20453;-78
2022/05/01 03:27:14;;;;;;;15.20;7.60;;;;;;;;;;5003568;28;20520;-78
2022/05/01 03:30:15;;;;;;;13.37;6.80;;;;;;;;;;4997437;28;20555;-78
2022/05/01 03:32:36;;;;;;;13.80;7.97;;;;;;;;;;5003658;28;20575;-78
2022/05/01 03:35:07;;;;;;;17.23;8.00;;;;;;;;;;5013203;28;20062;-78
2022/05/01 03:37:37;;;;;;;15.13;8.45;;;;;;;;;;5003122;28;20473;-78
2022/05/01 03:40:07;;;;;;;15.00;7.80;;;;;;;;;;5005327;28;20076;-78
2022/05/01 03:42:37;;;;;;;13.45;7.78;;;;;;;;;;5012284;28;20058;-78
2022/05/01 03:45:08;;;;;;;14.35;7.20;;;;;;;;;;5005006;28;20097;-78
2022/05/01 03:47:40;;;;;;;14.82;7.28;;;;;;;;;;5000400;28;20054;-78
2022/05/01 03:50:10;;;;;;;12.00;6.68;;;;;;;;;;5012160;28;20051;-77
2022/05/01 03:52:47;;;;;;;11.20;6.68;;;;;;;;;;4996477;28;20223;-78
2022/05/01 03:55:18;;;;;;;14.18;7.40;;;;;;;;;;5005081;28;20062;-78
2022/05/01 03:57:48;;;;;;;12.38;7.20;;;;;;;;;;5001963;28;20058;-78
2022/05/01 04:00:44;;;;;;;15.07;7.18;;;;;;;;;;4997472;28;20054;-78
2022/05/01 04:03:11;;;;;;;15.35;7.65;;;;;;;;;;5003167;28;20083;-78
2022/05/01 04:05:38;;;;;;;15.38;7.60;;;;;;;;;;5003869;28;20061;-78
2022/05/01 04:08:05;;;;;;;12.93;7.13;;;;;;;;;;5003193;28;20133;-78
2022/05/01 04:10:31;;;;;;;13.55;7.25;;;;;;;;;;5001845;28;20552;-78
2022/05/01 04:12:57;;;;;;;14.25;8.00;;;;;;;;;;5003790;28;20189;-78
2022/05/01 04:15:24;;;;;;;13.52;7.28;;;;;;;;;;5001725;28;20141;-78
2022/05/01 04:17:50;;;;;;;12.35;7.25;;;;;;;;;;5002418;28;20137;-78
2022/05/01 04:20:16;;;;;;;15.07;7.53;;;;;;;;;;4998999;28;20062;-78
2022/05/01 04:22:44;;;;;;;14.52;7.63;;;;;;;;;;5001082;28;20065;-78
2022/05/01 04:25:15;;;;;;;14.90;7.82;;;;;;;;;;4999220;28;20251;-78
2022/05/01 04:27:43;;;;;;;14.23;7.97;;;;;;;;;;5002626;28;20129;-78
2022/05/01 04:30:10;;;;;;;13.55;7.30;;;;;;;;;;5002244;28;20089;-78
2022/05/01 04:32:53;;;;;;;14.13;7.60;;;;;;;;;;5000373;28;20054;-78
2022/05/01 04:35:21;;;;;;;15.60;8.27;;;;;;;;;;5015618;28;20979;-78
2022/05/01 04:37:47;;;;;;;14.23;7.53;;;;;;;;;;5002008;28;20141;-78
2022/05/01 04:40:17;;;;;;;14.10;8.05;;;;;;;;;;4997071;28;20046;-78
2022/05/01 04:42:43;;;;;;;14.57;7.72;;;;;;;;;;5002590;28;20497;-78
2022/05/01 04:45:11;;;;;;;14.18;8.10;;;;;;;;;;5004549;28;20085;-78
2022/05/01 04:47:38;;;;;;;15.85;7.82;;;;;;;;;;5004033;28;20054;-78
2022/05/01 04:50:05;;;;;;;13.80;7.50;;;;;;;;;;4994685;28;20072;-78
2022/05/01 04:52:34;;;;;;;14.10;8.07;;;;;;;;;;5001653;28;20054;-78
2022/05/01 04:55:00;;;;;;;14.23;7.65;;;;;;;;;;5002780;28;20203;-78
2022/05/01 04:57:27;;;;;;;13.00;7.47;;;;;;;;;;5001851;28;20145;-78
2022/05/01 04:59:53;;;;;;;15.77;7.60;;;;;;;;;;4997202;28;20039;-78
2022/05/01 05:02:19;;;;;;;13.63;7.30;;;;;;;;;;5001489;28;20057;-78
2022/05/01 05:04:46;;;;;;;14.98;7.63;;;;;;;;;;5005269;28;20057;-78
2022/05/01 05:07:12;;;;;;;13.32;7.45;;;;;;;;;;5006242;28;20429;-78
2022/05/01 05:09:54;;;;;;;12.95;7.20;;;;;;;;;;5007192;28;20058;-78
2022/05/01 05:12:22;;;;;;;16.02;7.65;;;;;;;;;;5004631;28;20501;-79
2022/05/01 05:14:51;;;;;;;12.63;7.65;;;;;;;;;;5007993;28;20051;-79
2022/05/01 05:17:21;;;;;;;13.07;7.43;;;;;;;;;;5006569;28;20105;-79
2022/05/01 05:19:47;;;;;;;11.80;6.75;;;;;;;;;;5009264;28;20202;-80
2022/05/01 05:22:15;;;;;;;12.98;7.55;;;;;;;;;;5002199;28;20054;-80
2022/05/01 05:24:41;;;;;;;11.75;7.38;;;;;;;;;;5005421;28;20153;-79
2022/05/01 05:27:08;;;;;;;15.40;7.72;;;;;;;;;;5007239;28;20057;-79
2022/05/01 05:29:34;;;;;;;13.95;8.10;;;;;;;;;;5006829;28;20038;-79
2022/05/01 05:32:00;;;;;;;13.98;7.47;;;;;;;;;;5008105;28;20112;-79
2022/05/01 05:34:27;;;;;;;15.18;8.07;;;;;;;;;;5026508;28;20113;-79
2022/05/01 05:36:53;;;;;;;15.60;7.45;;;;;;;;;;5007360;28;20148;-79
2022/05/01 05:39:19;;;;;;;15.38;8.38;;;;;;;;;;5016956;28;20074;-79
2022/05/01 05:41:46;;;;;;;13.90;7.70;;;;;;;;;;5024249;28;20907;-78
2022/05/01 05:44:12;;;;;;;15.10;8.80;;;;;;;;;;5007909;28;20089;-79
2022/05/01 05:46:38;;;;;;;14.10;8.38;;;;;;;;;;5006424;28;20096;-79
2022/05/01 05:49:05;;;;;;;16.08;8.85;;;;;;;;;;5006175;28;20062;-79
2022/05/01 05:51:31;;;;;;;15.63;8.30;;;;;;;;;;5023344;28;20060;-79
2022/05/01 05:53:57;;;;;;;15.75;8.63;;;;;;;;;;5008308;28;20541;-78
2022/05/01 05:56:24;;;;;;;14.23;8.30;;;;;;;;;;5021397;28;20122;-79
2022/05/01 05:58:50;;;;;;;14.98;8.88;;;;;;;;;;5004638;28;20086;-79
2022/05/01 06:01:16;;;;;;;17.25;8.88;;;;;;;;;;5007108;28;20054;-79
2022/05/01 06:03:43;;;;;;;15.50;9.13;;;;;;;;;;5009152;28;20563;-79
2022/05/01 06:06:09;;;;;;;17.05;9.02;;;;;;;;;;5008491;28;20047;-78
2022/05/01 06:08:37;;;;;;;20.10;9.77;;;;;;;;;;5008931;28;20097;-79
2022/05/01 06:11:04;;;;;;;16.83;9.90;;;;;;;;;;5003530;28;20089;-79
2022/05/01 06:13:31;;;;;;;18.95;10.05;;;;;;;;;;5004520;28;20085;-79
2022/05/01 06:15:57;;;;;;;21.25;10.98;;;;;;;;;;5008523;28;20684;-79
2022/05/01 06:18:23;;;;;;;19.33;10.70;;;;;;;;;;5001938;28;20055;-79
2022/05/01 06:20:50;;;;;;;18.02;9.95;;;;;;;;;;5011436;28;20056;-79
2022/05/01 06:23:20;;;;;;;17.35;9.32;;;;;;;;;;4998504;28;20891;-79
2022/05/01 06:25:47;;;;;;;18.92;10.48;;;;;;;;;;5005604;28;20039;-79
2022/05/01 06:28:14;;;;;;;17.85;10.80;;;;;;;;;;5019017;28;20065;-79
2022/05/01 06:30:44;;;;;;;18.92;11.00;;;;;;;;;;5006613;28;20050;-79
2022/05/01 06:33:18;;;;;;;15.52;10.52;;;;;;;;;;4999433;28;20058;-80
2022/05/01 06:35:47;;;;;;;17.77;10.63;;;;;;;;;;4999218;28;20950;-80
2022/05/01 06:38:14;;;;;;;19.65;10.32;;;;;;;;;;5006955;28;20137;-79
2022/05/01 06:40:42;;;;;;;15.40;9.65;;;;;;;;;;5007129;28;20090;-79
2022/05/01 06:43:13;;;;;;;18.88;9.73;;;;;;;;;;5008588;28;20494;-80
2022/05/01 06:45:40;;;;;;;20.48;9.93;;;;;;;;;;4999139;28;20137;-80
2022/05/01 06:48:07;;;;;;;20.05;9.75;;;;;;;;;;5004455;28;20232;-80
2022/05/01 06:50:34;;;;;;;21.02;9.80;;;;;;;;;;5006107;28;21186;-80
2022/05/01 06:53:00;;;;;;;15.98;8.98;;;;;;;;;;5002776;28;20085;-80
2022/05/01 06:55:26;;;;;;;17.50;9.65;;;;;;;;;;5003804;28;20975;-80
2022/05/01 06:57:53;;;;;;;16.90;9.65;;;;;;;;;;5007399;28;20145;-79
2022/05/01 07:00:20;;;;;;;14.82;9.98;;;;;;;;;;5004415;28;20054;-79
2022/05/01 07:02:50;;;;;;;17.48;8.88;;;;;;;;;;5005960;28;20478;-80
2022/05/01 07:05:18;;;;;;;15.07;9.57;;;;;;;;;;5005770;28;20090;-80
2022/05/01 07:07:45;;;;;;;16.33;9.38;;;;;;;;;;5008524;28;20408;-79
2022/05/01 07:10:12;;;;;;;15.32;9.55;;;;;;;;;;5005832;28;20540;-80
2022/05/01 07:12:38;;;;;;;20.17;9.82;;;;;;;;;;5003963;28;20074;-79
2022/05/01 07:15:05;;;;;;;25.48;9.75;;;;;;;;;;5007487;28;20168;-80
2022/05/01 07:17:32;;;;;;;17.67;10.13;;;;;;;;;;5004028;28;20058;-78
2022/05/01 07:19:59;;;;;;;18.85;9.93;;;;;;;;;;5005076;28;20054;-77
2022/05/01 07:22:25;;;;;;;14.80;9.60;;;;;;;;;;5003152;28;20756;-78
2022/05/01 07:24:52;;;;;;;18.42;8.90;;;;;;;;;;5007688;28;20060;-78
2022/05/01 07:27:18;;;;;;;18.52;9.35;;;;;;;;;;5004140;28;20106;-78
2022/05/01 07:29:45;;;;;;;18.98;9.98;;;;;;;;;;5007323;28;20174;-78
2022/05/01 07:32:12;;;;;;;14.55;8.52;;;;;;;;;;5007177;28;20049;-78
2022/05/01 07:34:38;;;;;;;13.85;8.77;;;;;;;;;;5005629;28;20141;-79
2022/05/01 07:37:04;;;;;;;14.75;8.73;;;;;;;;;;5001201;28;20065;-79
2022/05/01 07:39:31;;;;;;;14.60;8.90;;;;;;;;;;5005836;28;20054;-79
2022/05/01 07:41:57;;;;;;;15.15;8.48;;;;;;;;;;5005459;28;20436;-78
2022/05/01 07:44:24;;;;;;;16.38;8.48;;;;;;;;;;4998980;28;20145;-78
2022/05/01 07:46:53;;;;;;;14.02;8.20;;;;;;;;;;4996503;28;21146;-78
2022/05/01 07:49:21;;;;;;;16.23;8.80;;;;;;;;;;5002377;28;20552;-79
2022/05/01 07:51:47;;;;;;;12.32;7.70;;;;;;;;;;5005440;28;20064;-78
2022/05/01 07:54:13;;;;;;;14.90;8.00;;;;;;;;;;5004174;28;20058;-78
2022/05/01 07:56:44;;;;;;;15.23;7.68;;;;;;;;;;5004459;28;20046;-78
2022/05/01 07:59:11;;;;;;;13.43;7.10;;;;;;;;;;4999610;28;20134;-78
2022/05/01 08:01:38;;;;;;;13.50;7.60;;;;;;;;;;5004560;28;20160;-79
2022/05/01 08:06:51;;;;;;;12.20;6.38;;;;;;;;;;4996956;28;20076;-79
2022/05/01 08:09:18;;;;;;;13.75;7.18;;;;;;;;;;5003870;28;20255;-79
2022/05/01 08:11:44;;;;;;;15.05;8.02;;;;;;;;;;5003082;28;20501;-78
2022/05/01 08:14:12;;;;;;;11.32;7.22;;;;;;;;;;5002555;28;20149;-78
2022/05/01 08:16:39;;;;;;;12.05;6.80;;;;;;;;;;5001988;28;20058;-78
2022/05/01 08:21:52;;;;;;;11.15;6.82;;;;;;;;;;5000760;28;20066;-78
2022/05/01 08:24:19;;;;;;;13.95;7.10;;;;;;;;;;5006334;28;20567;-78
2022/05/01 08:26:48;;;;;;;11.95;7.15;;;;;;;;;;5006509;28;20064;-78
2022/05/01 08:29:15;;;;;;;12.85;7.93;;;;;;;;;;5006938;28;20334;-79
2022/05/01 08:31:50;;;;;;;11.25;7.10;;;;;;;;;;4999169;28;20148;-78
2022/05/01 08:34:17;;;;;;;13.63;6.95;;;;;;;;;;5006066;28;20090;-78
2022/05/01 08:36:46;;;;;;;11.00;6.53;;;;;;;;;;5006419;28;20059;-79
2022/05/01 08:39:13;;;;;;;11.38;6.80;;;;;;;;;;5003035;28;20050;-79
2022/05/01 08:41:39;;;;;;;11.23;7.38;;;;;;;;;;5025488;28;20035;-79
2022/05/01 08:44:11;;;;;;;10.77;6.82;;;;;;;;;;5026661;28;20057;-78
2022/05/01 08:46:45;;;;;;;9.65;6.28;;;;;;;;;;5005032;28;20521;-80
2022/05/01 08:49:12;;;;;;;8.27;4.80;;;;;;;;;;5005564;28;20058;-80
2022/05/01 08:51:39;;;;;;;9.55;5.53;;;;;;;;;;5009319;28;20064;-81
2022/05/01 08:54:10;;;;;;;12.60;6.68;;;;;;;;;;5011912;28;20049;-81
2022/05/01 08:56:37;;;;;;;11.15;6.50;;;;;;;;;;5008935;28;20141;-80
2022/05/01 08:59:04;;;;;;;10.40;6.25;;;;;;;;;;5004726;28;20130;-81
2022/05/01 09:01:34;;;;;;;10.60;6.03;;;;;;;;;;5007146;28;20082;-80
2022/05/01 09:04:01;;;;;;;7.95;5.88;;;;;;;;;;5008477;28;20158;-81
2022/05/01 09:06:29;;;;;;;10.40;6.50;;;;;;;;;;5005816;28;20061;-81
2022/05/01 09:08:59;;;;;;;12.23;6.45;;;;;;;;;;5005458;28;20054;-81
2022/05/01 09:14:10;;;;;;;9.85;6.30;;;;;;;;;;5000619;28;20054;-80
2022/05/01 09:16:37;;;;;;;8.52;5.50;;;;;;;;;;5007488;28;20060;-80
2022/05/01 09:19:03;;;;;;;8.15;5.25;;;;;;;;;;5005989;28;20544;-81
2022/05/01 09:21:50;;;;;;;7.32;4.20;;;;;;;;;;5013401;28;20060;-81
2022/05/01 09:24:26;;;;;;;6.50;4.40;;;;;;;;;;5002882;28;20066;-80
2022/05/01 09:26:57;;;;;;;8.75;4.80;;;;;;;;;;5012687;28;20972;-80
2022/05/01 09:29:35;;;;;;;9.63;5.05;;;;;;;;;;5006631;28;20182;-80
2022/05/01 09:32:03;;;;;;;7.90;4.40;;;;;;;;;;4991146;28;20081;-80
2022/05/01 09:34:32;;;;;;;9.15;4.70;;;;;;;;;;5006064;28;20061;-81
2022/05/01 09:36:59;;;;;;;7.47;4.45;;;;;;;;;;5007370;28;20050;-80
2022/05/01 09:39:27;;;;;;;7.30;4.45;;;;;;;;;;5021633;28;20516;-80
2022/05/01 09:42:16;;;;;;;9.00;4.63;;;;;;;;;;5005133;28;20217;-80
2022/05/01 09:44:43;;;;;;;9.55;5.13;;;;;;;;;;5006267;28;20144;-80
2022/05/01 09:47:09;;;;;;;8.45;5.43;;;;;;;;;;5003246;28;20174;-80
2022/05/01 09:49:45;;;;;;;8.43;5.63;;;;;;;;;;5006426;28;20061;-80
2022/05/01 09:52:13;;;;;;;9.95;5.35;;;;;;;;;;5009832;28;20437;-80
2022/05/01 09:54:39;;;;;;;9.35;5.38;;;;;;;;;;5008215;28;20061;-80
2022/05/01 09:57:06;;;;;;;9.20;5.35;;;;;;;;;;5010478;28;20101;-80
2022/05/01 09:59:45;;;;;;;9.75;5.20;;;;;;;;;;5006842;28;20118;-80
2022/05/01 10:02:12;;;;;;;8.68;5.32;;;;;;;;;;5020789;28;20052;-80
2022/05/01 10:04:39;;;;;;;9.23;5.10;;;;;;;;;;5024869;28;20436;-80
2022/05/01 10:07:06;;;;;;;9.35;4.97;;;;;;;;;;5016303;28;20134;-80
2022/05/01 10:09:34;;;;;;;9.40;4.70;;;;;;;;;;5007085;28;20089;-80
2022/05/01 10:12:07;;;;;;;8.93;4.97;;;;;;;;;;5006600;28;20077;-80
2022/05/01 10:14:33;;;;;;;7.70;5.00;;;;;;;;;;5003812;28;20077;-80
2022/05/01 10:17:00;;;;;;;9.63;4.57;;;;;;;;;;5007132;28;20069;-80
2022/05/01 10:19:27;;;;;;;7.75;4.72;;;;;;;;;;5017813;28;20060;-80
2022/05/01 10:21:59;;;;;;;9.93;5.32;;;;;;;;;;5007511;28;20925;-80
2022/05/01 10:24:26;;;;;;;9.38;4.95;;;;;;;;;;5008695;28;20094;-80
2022/05/01 10:27:02;;;;;;;7.13;4.80;;;;;;;;;;5008725;28;20109;-80
2022/05/01 10:29:34;;;;;;;8.00;4.88;;;;;;;;;;5008611;28;20162;-80
2022/05/01 10:32:23;;;;;;;8.45;5.03;;;;;;;;;;5008749;28;20094;-80
2022/05/01 10:35:28;;;;;;;8.15;4.80;;;;;;;;;;5007228;28;20045;-80
2022/05/01 10:38:14;;;;;;;7.43;4.18;;;;;;;;;;5006358;28;20050;-80
2022/05/01 10:40:43;;;;;;;8.80;4.47;;;;;;;;;;5005191;28;21008;-79
2022/05/01 10:43:24;;;;;;;7.07;4.57;;;;;;;;;;5010639;28;20489;-77
2022/05/01 10:46:00;;;;;;;9.32;5.15;;;;;;;;;;5013078;28;20054;-80
2022/05/01 10:48:29;;;;;;;7.70;5.07;;;;;;;;;;5005217;28;20045;-80
2022/05/01 10:50:55;;;;;;;7.53;4.70;;;;;;;;;;5007820;28;20059;-80
2022/05/01 10:53:21;;;;;;;7.35;4.57;;;;;;;;;;5013087;28;20576;-80
2022/05/01 10:55:51;;;;;;;9.20;5.07;;;;;;;;;;5005981;28;20055;-80
2022/05/01 10:58:26;;;;;;;7.78;4.60;;;;;;;;;;5001449;28;20737;-80
2022/05/01 11:00:53;;;;;;;9.85;5.00;;;;;;;;;;5021159;28;20078;-80
2022/05/01 11:03:21;;;;;;;9.85;5.22;;;;;;;;;;5005853;28;20105;-80
2022/05/01 11:05:50;;;;;;;8.00;5.00;;;;;;;;;;5006043;28;20533;-80
2022/05/01 11:08:20;;;;;;;10.13;5.43;;;;;;;;;;5008826;28;20110;-80
2022/05/01 11:10:46;;;;;;;8.60;4.57;;;;;;;;;;5013169;28;20062;-80
2022/05/01 11:13:32;;;;;;;7.45;4.95;;;;;;;;;;5021515;28;20137;-79
2022/05/01 11:15:59;;;;;;;7.88;4.88;;;;;;;;;;5018688;28;20080;-80
2022/05/01 11:18:29;;;;;;;9.70;4.65;;;;;;;;;;5012881;28;20054;-80
2022/05/01 11:20:56;;;;;;;;;;;;;;;;;;5010212;28;20513;-79
2022/05/01 11:23:27;;;;;;;8.48;4.43;;;;;;;;;;5008082;28;45205;-80
2022/05/01 11:26:04;;;;;;;8.45;4.38;;;;;;;;;;5009724;28;20140;-80
2022/05/01 11:28:41;;;;;;;8.98;5.38;;;;;;;;;;5003793;28;20088;-80
2022/05/01 11:31:26;;;;;;;8.07;4.43;;;;;;;;;;5001319;28;20142;-80
2022/05/01 11:34:32;;;;;;;7.90;4.60;;;;;;;;;;5021428;28;20434;-80
2022/05/01 11:37:05;;;;;;;8.20;4.80;;;;;;;;;;4965516;28;20097;-80
2022/05/01 11:39:47;;;;;;;8.52;4.78;;;;;;;;;;4982216;28;20602;-80
2022/05/01 11:42:26;;;;;;;8.20;5.07;;;;;;;;;;4996005;28;20058;-80
2022/05/01 11:44:57;;;;;;;7.38;4.72;;;;;;;;;;5004694;28;20207;-80
2022/05/01 11:47:25;;;;;;;6.65;4.25;;;;;;;;;;5001713;28;20058;-80
2022/05/01 11:49:54;;;;;;;7.43;4.50;;;;;;;;;;5004887;28;20100;-80
2022/05/01 11:52:24;;;;;;;7.85;5.07;;;;;;;;;;5005725;28;20057;-80
2022/05/01 11:54:52;;;;;;;8.00;4.63;;;;;;;;;;5002729;28;20051;-79
2022/05/01 12:02:57;;;;;;;7.55;5.10;;;;;;;;;;5002331;28;20062;-80
2022/05/01 12:05:23;;;;;;;7.53;4.30;;;;;;;;;;5001667;28;20039;-80
2022/05/01 12:07:56;;;;;;;6.20;4.43;;;;;;;;;;5003561;28;20059;-80
2022/05/01 12:10:23;;;;;;;8.50;4.90;;;;;;;;;;5012387;28;20062;-80
2022/05/01 12:12:49;;;;;;;7.32;4.95;;;;;;;;;;5001785;28;20137;-80
2022/05/01 12:15:16;;;;;;;8.45;4.40;;;;;;;;;;5004144;28;20045;-80
2022/05/01 12:17:43;;;;;;;7.30;4.75;;;;;;;;;;5008708;28;20056;-80
2022/05/01 12:20:10;;;;;;;7.53;4.32;;;;;;;;;;5003997;28;20046;-79
2022/05/01 12:22:37;;;;;;;7.40;4.60;;;;;;;;;;5001291;28;20117;-80
2022/05/01 12:25:10;;;;;;;9.00;4.93;;;;;;;;;;5003222;28;20587;-80
2022/05/01 12:27:40;;;;;;;8.98;4.20;;;;;;;;;;4998119;28;20097;-80
2022/05/01 12:30:07;;;;;;;;;;;;;;;;;;5007814;28;20113;-80
2022/05/01 12:32:34;;;;;;;7.53;4.43;;;;;;;;;;5019657;28;48405;-80
2022/05/01 12:35:01;;;;;;;7.53;4.43;;;;;;;;;;5002936;28;20082;-81
2022/05/01 12:37:34;;;;;;;7.55;4.60;;;;;;;;;;5003826;28;20149;-81
2022/05/01 12:40:04;;;;;;;7.50;4.70;;;;;;;;;;5007448;28;20476;-81
2022/05/01 12:45:33;;;;;;;8.10;4.35;;;;;;;;;;5008893;28;20065;-79
2022/05/01 12:48:01;;;;;;;10.05;4.30;;;;;;;;;;5000351;28;20059;-79
2022/05/01 12:50:27;;;;;;;6.95;4.43;;;;;;;;;;4998666;28;20144;-80
2022/05/01 12:52:57;;;;;;;8.57;4.60;;;;;;;;;;5001541;28;20074;-80
2022/05/01 12:55:33;;;;;;;6.65;4.60;;;;;;;;;;5008905;28;20182;-80
2022/05/01 12:58:01;;;;;;;6.70;4.30;;;;;;;;;;5001404;28;20133;-79
2022/05/01 13:00:30;;;;;;;7.05;4.43;;;;;;;;;;5003778;28;20072;-80
2022/05/01 13:03:17;;;;;;;6.00;4.10;;;;;;;;;;5000418;28;20113;-79
2022/05/01 13:05:53;;;;;;;9.88;4.82;;;;;;;;;;5006008;28;20100;-80
2022/05/01 13:08:20;;;;;;;6.90;4.30;;;;;;;;;;5007443;28;20129;-79
2022/05/01 13:11:05;;;;;;;8.52;4.60;;;;;;;;;;4996505;28;20050;-79
2022/05/01 13:13:51;;;;;;;7.93;4.43;;;;;;;;;;5003242;28;20050;-79
2022/05/01 13:16:32;;;;;;;7.57;4.50;;;;;;;;;;5004878;28;20104;-79
2022/05/01 13:18:59;;;;;;;6.88;4.40;;;;;;;;;;5006020;28;20502;-79
2022/05/01 13:21:26;;;;;;;6.90;4.18;;;;;;;;;;5003370;28;20102;-79
2022/05/01 13:24:16;;;;;;;6.78;4.30;;;;;;;;;;5000733;28;20067;-79
2022/05/01 13:26:42;;;;;;;6.03;3.77;;;;;;;;;;5000918;28;20060;-79
2022/05/01 13:29:10;;;;;;;7.95;4.40;;;;;;;;;;5006839;28;20050;-79
2022/05/01 13:31:44;;;;;;;7.20;4.03;;;;;;;;;;5006232;28;20054;-79
2022/05/01 13:34:10;;;;;;;7.43;4.25;;;;;;;;;;5021855;28;20543;-79
2022/05/01 13:36:40;;;;;;;8.63;4.00;;;;;;;;;;5005557;28;20122;-79
2022/05/01 13:39:07;;;;;;;6.88;4.05;;;;;;;;;;5007090;28;20112;-79
2022/05/01 13:47:05;;;;;;;7.10;3.90;;;;;;;;;;5007456;28;20054;-79
2022/05/01 13:49:33;;;;;;;9.65;3.63;;;;;;;;;;5007014;28;20130;-79
2022/05/01 13:51:59;;;;;;;6.43;3.55;;;;;;;;;;5011648;28;20058;-79
2022/05/01 13:54:26;;;;;;;7.32;4.00;;;;;;;;;;5014030;28;20086;-79
2022/05/01 13:56:52;;;;;;;7.78;4.07;;;;;;;;;;5005625;28;20078;-79
2022/05/01 13:59:20;;;;;;;6.45;3.95;;;;;;;;;;5002703;28;20062;-78
2022/05/01 14:01:49;;;;;;;7.47;3.83;;;;;;;;;;5003510;28;20065;-79
2022/05/01 14:04:17;;;;;;;6.93;4.10;;;;;;;;;;5004212;28;20112;-78
2022/05/01 14:06:43;;;;;;;6.78;4.00;;;;;;;;;;5014557;28;20068;-79
2022/05/01 14:09:11;;;;;;;7.60;3.55;;;;;;;;;;5004288;28;20058;-78
2022/05/01 14:11:38;;;;;;;7.45;3.88;;;;;;;;;;4991004;28;20054;-78
2022/05/01 14:14:04;;;;;;;8.02;4.35;;;;;;;;;;5006108;28;20102;-79
2022/05/01 14:16:31;;;;;;;7.07;4.40;;;;;;;;;;5009141;28;20093;-78
2022/05/01 14:18:57;;;;;;;6.22;3.60;;;;;;;;;;5005140;28;20576;-79
2022/05/01 14:21:25;;;;;;;7.30;3.33;;;;;;;;;;5010631;28;20533;-79
2022/05/01 14:23:51;;;;;;;5.82;3.53;;;;;;;;;;5039930;28;20093;-78
2022/05/01 14:26:18;;;;;;;6.75;3.85;;;;;;;;;;5001494;28;20101;-78
2022/05/01 14:28:44;;;;;;;7.47;3.92;;;;;;;;;;5003096;28;20524;-79
2022/05/01 14:31:22;;;;;;;7.35;4.15;;;;;;;;;;5017524;28;20065;-78
2022/05/01 14:34:09;;;;;;;6.35;3.75;;;;;;;;;;5006047;28;20497;-78
2022/05/01 14:36:36;;;;;;;6.63;4.07;;;;;;;;;;5004042;28;20069;-79
2022/05/01 14:39:03;;;;;;;6.90;4.28;;;;;;;;;;5005389;28;20053;-79
2022/05/01 14:41:34;;;;;;;10.02;4.10;;;;;;;;;;5020693;28;20572;-79
2022/05/01 14:44:03;;;;;;;5.85;3.65;;;;;;;;;;5004036;28;20173;-79
2022/05/01 14:46:33;;;;;;;8.68;4.38;;;;;;;;;;5004822;28;20058;-79
2022/05/01 14:49:08;;;;;;;5.97;4.20;;;;;;;;;;5005685;28;20063;-79
2022/05/01 14:51:35;;;;;;;8.95;4.85;;;;;;;;;;5012351;28;20048;-77
2022/05/01 14:54:02;;;;;;;7.05;4.40;;;;;;;;;;5022136;28;20247;-78
2022/05/01 14:56:29;;;;;;;71.72;33.38;;;;;;;;;;5005442;28;20629;-77
2022/05/01 15:07:17;;;;;;;8.10;4.80;;;;;;;;;;5005794;28;20054;-78
2022/05/01 15:09:45;;;;;;;7.57;4.32;;;;;;;;;;5017629;28;20156;-79
2022/05/01 15:12:12;;;;;;;8.32;5.03;;;;;;;;;;5008523;28;20055;-79
2022/05/01 15:14:40;;;;;;;7.78;5.00;;;;;;;;;;5009847;28;20576;-77
2022/05/01 15:17:07;;;;;;;7.07;4.63;;;;;;;;;;4996192;28;20612;-79
2022/05/01 15:19:48;;;;;;;12.48;6.72;;;;;;;;;;5018605;28;20065;-78
2022/05/01 15:22:21;;;;;;;7.85;4.95;;;;;;;;;;5002406;28;20586;-80
2022/05/01 15:24:49;;;;;;;15.45;11.40;;;;;;;;;;5004413;28;20058;-79